sensor_id;sensor_type;location;lat;lon;timestamp;pressure;altitude;pressure_sealevel;temperature;humidity
73063;BME280;61230;46.328;19.972;2023-07-13T00:02:26;100201.03;;;23.35;84.62
73063;BME280;61230;46.328;19.972;2023-07-13T00:04:56;100243.28;;;23.58;84.96
73063;BME280;61230;46.328;19.972;2023-07-13T00:07:24;100230.28;;;23.43;85.42
73063;BME280;61230;46.328;19.972;2023-07-13T00:09:51;100237.06;;;23.45;85.47
73063;BME280;61230;46.328;19.972;2023-07-13T00:12:31;100229.69;;;23.41;86.17
73063;BME280;61230;46.328;19.972;2023-07-13T00:15:00;100231.97;;;23.37;86.34
73063;BME280;61230;46.328;19.972;2023-07-13T00:17:28;100229.16;;;23.32;86.10
73063;BME280;61230;46.328;19.972;2023-07-13T00:19:57;100231.84;;;23.32;86.12
73063;BME280;61230;46.328;19.972;2023-07-13T00:22:25;100227.28;;;23.33;85.80
73063;BME280;61230;46.328;19.972;2023-07-13T00:24:54;100239.53;;;23.29;86.34
73063;BME280;61230;46.328;19.972;2023-07-13T00:27:28;100239.75;;;23.27;86.22
73063;BME280;61230;46.328;19.972;2023-07-13T00:29:58;100243.72;;;23.25;87.15
73063;BME280;61230;46.328;19.972;2023-07-13T00:32:25;100241.34;;;23.17;87.77
73063;BME280;61230;46.328;19.972;2023-07-13T00:34:53;100247.88;;;23.09;88.75
73063;BME280;61230;46.328;19.972;2023-07-13T00:37:21;100246.91;;;23.04;89.26
73063;BME280;61230;46.328;19.972;2023-07-13T00:39:49;100240.72;;;23.03;88.91
73063;BME280;61230;46.328;19.972;2023-07-13T00:42:16;100241.75;;;23.02;88.66
73063;BME280;61230;46.328;19.972;2023-07-13T00:47:56;100229.91;;;23.10;87.90
73063;BME280;61230;46.328;19.972;2023-07-13T00:50:25;100237.34;;;23.08;87.64
73063;BME280;61230;46.328;19.972;2023-07-13T00:52:54;100238.16;;;23.08;87.76
73063;BME280;61230;46.328;19.972;2023-07-13T00:55:25;100192.87;;;22.82;87.42
73063;BME280;61230;46.328;19.972;2023-07-13T00:57:52;100242.56;;;23.03;87.87
73063;BME280;61230;46.328;19.972;2023-07-13T01:00:21;100246.53;;;23.00;88.71
73063;BME280;61230;46.328;19.972;2023-07-13T01:02:50;100246.38;;;22.95;88.80
73063;BME280;61230;46.328;19.972;2023-07-13T01:05:20;100244.16;;;22.92;89.20
73063;BME280;61230;46.328;19.972;2023-07-13T01:07:49;100254.06;;;22.92;89.23
73063;BME280;61230;46.328;19.972;2023-07-13T01:10:21;100228.50;;;22.89;89.31
73063;BME280;61230;46.328;19.972;2023-07-13T01:12:49;100228.72;;;22.87;89.14
73063;BME280;61230;46.328;19.972;2023-07-13T01:15:37;100215.53;;;22.86;89.21
73063;BME280;61230;46.328;19.972;2023-07-13T01:18:15;100200.47;;;22.85;89.10
73063;BME280;61230;46.328;19.972;2023-07-13T01:21:03;100191.38;;;22.86;89.05
73063;BME280;61230;46.328;19.972;2023-07-13T01:23:32;100192.22;;;22.86;89.12
73063;BME280;61230;46.328;19.972;2023-07-13T01:25:59;100176.94;;;22.87;89.00
73063;BME280;61230;46.328;19.972;2023-07-13T01:28:28;100132.66;;;22.60;89.09
73063;BME280;61230;46.328;19.972;2023-07-13T01:30:57;100166.97;;;22.76;89.59
73063;BME280;61230;46.328;19.972;2023-07-13T01:33:26;100180.28;;;22.82;89.32
73063;BME280;61230;46.328;19.972;2023-07-13T01:35:54;100187.94;;;22.79;89.60
73063;BME280;61230;46.328;19.972;2023-07-13T01:38:25;100153.84;;;22.50;90.41
73063;BME280;61230;46.328;19.972;2023-07-13T01:40:53;100186.47;;;22.65;91.78
73063;BME280;61230;46.328;19.972;2023-07-13T01:43:23;100196.00;;;22.61;92.21
73063;BME280;61230;46.328;19.972;2023-07-13T01:45:51;100193.75;;;22.58;92.32
73063;BME280;61230;46.328;19.972;2023-07-13T01:48:19;100191.75;;;22.53;92.59
73063;BME280;61230;46.328;19.972;2023-07-13T01:50:48;100189.97;;;22.47;93.13
73063;BME280;61230;46.328;19.972;2023-07-13T01:53:17;100182.44;;;22.38;93.90
73063;BME280;61230;46.328;19.972;2023-07-13T01:55:44;100157.41;;;22.25;93.55
73063;BME280;61230;46.328;19.972;2023-07-13T01:58:12;100177.66;;;22.40;93.47
73063;BME280;61230;46.328;19.972;2023-07-13T02:00:40;100172.84;;;22.30;93.95
73063;BME280;61230;46.328;19.972;2023-07-13T02:03:07;100179.59;;;22.32;93.72
73063;BME280;61230;46.328;19.972;2023-07-13T02:05:36;100177.50;;;22.34;93.82
73063;BME280;61230;46.328;19.972;2023-07-13T02:08:03;100180.19;;;22.34;93.97
73063;BME280;61230;46.328;19.972;2023-07-13T02:10:31;100181.22;;;22.33;94.59
73063;BME280;61230;46.328;19.972;2023-07-13T02:12:59;100184.38;;;22.30;95.65
73063;BME280;61230;46.328;19.972;2023-07-13T02:15:27;100180.78;;;22.18;96.85
73063;BME280;61230;46.328;19.972;2023-07-13T02:17:54;100154.63;;;21.96;96.92
73063;BME280;61230;46.328;19.972;2023-07-13T02:20:22;100175.47;;;22.12;97.06
73063;BME280;61230;46.328;19.972;2023-07-13T02:22:50;100170.34;;;22.10;97.45
73063;BME280;61230;46.328;19.972;2023-07-13T02:25:19;100163.59;;;22.08;97.65
73063;BME280;61230;46.328;19.972;2023-07-13T02:27:48;100153.91;;;22.07;99.84
73063;BME280;61230;46.328;19.972;2023-07-13T02:30:17;100160.53;;;22.04;99.58
73063;BME280;61230;46.328;19.972;2023-07-13T02:32:44;100160.91;;;22.08;99.33
73063;BME280;61230;46.328;19.972;2023-07-13T02:35:12;100154.72;;;22.07;98.84
73063;BME280;61230;46.328;19.972;2023-07-13T02:37:40;100157.16;;;22.09;98.41
73063;BME280;61230;46.328;19.972;2023-07-13T02:40:08;100154.28;;;22.10;98.08
73063;BME280;61230;46.328;19.972;2023-07-13T02:42:36;100153.84;;;22.13;97.48
73063;BME280;61230;46.328;19.972;2023-07-13T02:45:07;100151.75;;;22.15;97.69
73063;BME280;61230;46.328;19.972;2023-07-13T02:47:36;100165.34;;;22.14;97.94
73063;BME280;61230;46.328;19.972;2023-07-13T02:50:04;100160.81;;;22.14;98.19
73063;BME280;61230;46.328;19.972;2023-07-13T02:52:33;100175.28;;;22.13;98.16
73063;BME280;61230;46.328;19.972;2023-07-13T02:55:01;100125.78;;;21.91;97.49
73063;BME280;61230;46.328;19.972;2023-07-13T02:57:28;100173.38;;;22.14;97.26
73063;BME280;61230;46.328;19.972;2023-07-13T02:59:56;100149.63;;;21.74;98.90
73063;BME280;61230;46.328;19.972;2023-07-13T03:02:24;100186.19;;;21.94;98.89
73063;BME280;61230;46.328;19.972;2023-07-13T03:04:51;100148.22;;;21.72;98.27
73063;BME280;61230;46.328;19.972;2023-07-13T03:07:19;100185.72;;;21.97;98.30
73063;BME280;61230;46.328;19.972;2023-07-13T03:09:47;100189.66;;;21.94;97.96
73063;BME280;61230;46.328;19.972;2023-07-13T03:12:15;100148.81;;;21.74;97.84
73063;BME280;61230;46.328;19.972;2023-07-13T03:14:43;100156.47;;;21.70;97.97
73063;BME280;61230;46.328;19.972;2023-07-13T03:17:11;100196.44;;;21.97;97.62
73063;BME280;61230;46.328;19.972;2023-07-13T03:19:40;100192.13;;;21.96;97.75
73063;BME280;61230;46.328;19.972;2023-07-13T03:22:08;100156.63;;;21.75;97.39
73063;BME280;61230;46.328;19.972;2023-07-13T03:24:37;100182.84;;;21.42;100.00
73063;BME280;61230;46.328;19.972;2023-07-13T03:27:07;100220.06;;;21.50;100.00
73063;BME280;61230;46.328;19.972;2023-07-13T03:29:35;100225.00;;;21.78;98.54
73063;BME280;61230;46.328;19.972;2023-07-13T03:32:03;100227.25;;;21.88;98.28
73063;BME280;61230;46.328;19.972;2023-07-13T03:34:32;100215.66;;;21.94;96.81
73063;BME280;61230;46.328;19.972;2023-07-13T03:37:00;100219.25;;;22.06;96.27
73063;BME280;61230;46.328;19.972;2023-07-13T03:39:28;100211.06;;;22.01;96.98
73063;BME280;61230;46.328;19.972;2023-07-13T03:41:56;100208.84;;;22.16;96.08
73063;BME280;61230;46.328;19.972;2023-07-13T03:44:24;100220.75;;;22.20;96.14
73063;BME280;61230;46.328;19.972;2023-07-13T03:46:52;100201.69;;;22.28;96.10
73063;BME280;61230;46.328;19.972;2023-07-13T03:49:20;100214.31;;;22.27;96.27
73063;BME280;61230;46.328;19.972;2023-07-13T03:51:47;100205.22;;;22.28;96.24
73063;BME280;61230;46.328;19.972;2023-07-13T03:54:19;100187.59;;;22.39;95.08
73063;BME280;61230;46.328;19.972;2023-07-13T03:56:46;100178.19;;;22.48;94.67
73063;BME280;61230;46.328;19.972;2023-07-13T03:59:15;100126.19;;;22.31;94.56
73063;BME280;61230;46.328;19.972;2023-07-13T04:01:43;100146.59;;;22.68;94.31
73063;BME280;61230;46.328;19.972;2023-07-13T04:04:11;100146.47;;;22.81;93.28
73063;BME280;61230;46.328;19.972;2023-07-13T04:06:39;100153.56;;;22.87;92.64
73063;BME280;61230;46.328;19.972;2023-07-13T04:09:06;100118.87;;;22.74;92.11
73063;BME280;61230;46.328;19.972;2023-07-13T04:11:36;100148.16;;;23.06;91.51
73063;BME280;61230;46.328;19.972;2023-07-13T04:14:05;100151.72;;;23.18;91.15
73063;BME280;61230;46.328;19.972;2023-07-13T04:16:33;100111.63;;;23.05;90.91
73063;BME280;61230;46.328;19.972;2023-07-13T04:19:01;100162.16;;;23.37;90.79
73063;BME280;61230;46.328;19.972;2023-07-13T04:21:30;100158.34;;;23.45;90.52
73063;BME280;61230;46.328;19.972;2023-07-13T04:23:58;100169.59;;;23.65;90.38
73063;BME280;61230;46.328;19.972;2023-07-13T04:26:26;100160.72;;;23.76;89.14
73063;BME280;61230;46.328;19.972;2023-07-13T04:28:54;100174.53;;;23.91;88.43
73063;BME280;61230;46.328;19.972;2023-07-13T04:31:22;100161.56;;;24.00;87.47
73063;BME280;61230;46.328;19.972;2023-07-13T04:33:50;100187.28;;;24.19;87.10
73063;BME280;61230;46.328;19.972;2023-07-13T04:36:18;100203.06;;;24.39;86.59
73063;BME280;61230;46.328;19.972;2023-07-13T04:38:45;100224.09;;;24.42;85.36
73063;BME280;61230;46.328;19.972;2023-07-13T04:41:14;100234.03;;;24.41;86.08
73063;BME280;61230;46.328;19.972;2023-07-13T04:43:42;100244.78;;;24.53;86.78
73063;BME280;61230;46.328;19.972;2023-07-13T04:46:12;100264.09;;;24.62;86.40
73063;BME280;61230;46.328;19.972;2023-07-13T04:48:41;100296.38;;;24.62;85.73
73063;BME280;61230;46.328;19.972;2023-07-13T04:51:08;100311.94;;;24.59;85.67
73063;BME280;61230;46.328;19.972;2023-07-13T04:53:36;100309.47;;;24.46;86.96
73063;BME280;61230;46.328;19.972;2023-07-13T04:56:04;100321.66;;;24.49;86.23
73063;BME280;61230;46.328;19.972;2023-07-13T04:58:32;100294.37;;;24.22;85.87
73063;BME280;61230;46.328;19.972;2023-07-13T05:01:02;100347.94;;;24.35;85.86
73063;BME280;61230;46.328;19.972;2023-07-13T05:03:30;100371.91;;;24.25;86.41
73063;BME280;61230;46.328;19.972;2023-07-13T05:06:04;100375.06;;;24.22;86.79
73063;BME280;61230;46.328;19.972;2023-07-13T05:08:32;100379.87;;;24.20;88.20
73063;BME280;61230;46.328;19.972;2023-07-13T05:11:01;100378.47;;;24.18;89.40
73063;BME280;61230;46.328;19.972;2023-07-13T05:13:29;100354.47;;;24.16;89.80
73063;BME280;61230;46.328;19.972;2023-07-13T05:15:59;100315.37;;;24.02;91.00
73063;BME280;61230;46.328;19.972;2023-07-13T05:18:27;100325.09;;;24.03;91.88
73063;BME280;61230;46.328;19.972;2023-07-13T05:21:03;100321.16;;;23.87;92.86
73063;BME280;61230;46.328;19.972;2023-07-13T05:23:33;100368.47;;;24.07;94.34
73063;BME280;61230;46.328;19.972;2023-07-13T05:26:02;100413.97;;;23.90;94.46
73063;BME280;61230;46.328;19.972;2023-07-13T05:28:32;100448.38;;;23.70;95.73
73063;BME280;61230;46.328;19.972;2023-07-13T05:31:00;100434.44;;;23.73;96.25
73063;BME280;61230;46.328;19.972;2023-07-13T05:33:28;100450.69;;;23.66;95.67
73063;BME280;61230;46.328;19.972;2023-07-13T05:35:56;100428.22;;;23.42;96.16
73063;BME280;61230;46.328;19.972;2023-07-13T05:38:23;100476.72;;;23.66;94.60
73063;BME280;61230;46.328;19.972;2023-07-13T05:40:54;100467.19;;;23.70;93.20
73063;BME280;61230;46.328;19.972;2023-07-13T05:43:22;100464.75;;;23.62;93.99
73063;BME280;61230;46.328;19.972;2023-07-13T05:45:54;100476.41;;;23.56;93.65
73063;BME280;61230;46.328;19.972;2023-07-13T05:48:22;100495.94;;;23.44;93.72
73063;BME280;61230;46.328;19.972;2023-07-13T05:50:50;100516.88;;;23.36;94.72
73063;BME280;61230;46.328;19.972;2023-07-13T05:53:17;100507.03;;;23.30;95.03
73063;BME280;61230;46.328;19.972;2023-07-13T05:55:47;100493.81;;;23.28;91.36
73063;BME280;61230;46.328;19.972;2023-07-13T05:58:17;100523.25;;;23.41;86.49
73063;BME280;61230;46.328;19.972;2023-07-13T06:01:01;100516.94;;;23.05;94.42
73063;BME280;61230;46.328;19.972;2023-07-13T06:03:31;100442.12;;;22.65;96.53
73063;BME280;61230;46.328;19.972;2023-07-13T06:05:59;100325.84;;;22.28;100.00
73063;BME280;61230;46.328;19.972;2023-07-13T06:08:31;100402.31;;;22.06;100.00
73063;BME280;61230;46.328;19.972;2023-07-13T06:11:03;100410.00;;;21.96;100.00
73063;BME280;61230;46.328;19.972;2023-07-13T06:13:32;100433.13;;;21.77;100.00
73063;BME280;61230;46.328;19.972;2023-07-13T06:16:01;100436.06;;;21.69;100.00
73063;BME280;61230;46.328;19.972;2023-07-13T06:18:33;100467.19;;;21.70;100.00
73063;BME280;61230;46.328;19.972;2023-07-13T06:21:08;100464.50;;;21.70;100.00
73063;BME280;61230;46.328;19.972;2023-07-13T06:23:37;100458.31;;;21.76;100.00
73063;BME280;61230;46.328;19.972;2023-07-13T06:26:05;100400.88;;;21.59;100.00
73063;BME280;61230;46.328;19.972;2023-07-13T06:28:34;100408.75;;;21.99;100.00
73063;BME280;61230;46.328;19.972;2023-07-13T06:31:06;100375.75;;;22.05;100.00
73063;BME280;61230;46.328;19.972;2023-07-13T06:33:34;100380.97;;;22.24;100.00
73063;BME280;61230;46.328;19.972;2023-07-13T06:36:03;100407.16;;;21.85;100.00
73063;BME280;61230;46.328;19.972;2023-07-13T06:38:31;100400.00;;;22.16;100.00
73063;BME280;61230;46.328;19.972;2023-07-13T06:40:59;100391.97;;;22.41;100.00
73063;BME280;61230;46.328;19.972;2023-07-13T06:43:27;100390.88;;;22.73;100.00
73063;BME280;61230;46.328;19.972;2023-07-13T06:45:56;100374.97;;;22.97;100.00
73063;BME280;61230;46.328;19.972;2023-07-13T06:48:23;100368.03;;;22.89;100.00
73063;BME280;61230;46.328;19.972;2023-07-13T06:50:51;100356.72;;;23.23;100.00
73063;BME280;61230;46.328;19.972;2023-07-13T06:53:21;100335.66;;;23.57;100.00
73063;BME280;61230;46.328;19.972;2023-07-13T06:55:49;100335.19;;;23.78;100.00
73063;BME280;61230;46.328;19.972;2023-07-13T06:58:18;100336.63;;;23.92;100.00
73063;BME280;61230;46.328;19.972;2023-07-13T07:00:50;100314.34;;;24.03;100.00
73063;BME280;61230;46.328;19.972;2023-07-13T07:03:17;100268.25;;;23.88;100.00
73063;BME280;61230;46.328;19.972;2023-07-13T07:05:45;100298.13;;;24.21;99.16
73063;BME280;61230;46.328;19.972;2023-07-13T07:08:13;100297.78;;;24.41;98.80
73063;BME280;61230;46.328;19.972;2023-07-13T07:10:41;100258.84;;;24.43;100.00
73063;BME280;61230;46.328;19.972;2023-07-13T07:13:09;100299.62;;;24.75;97.90
73063;BME280;61230;46.328;19.972;2023-07-13T07:15:37;100280.94;;;24.69;94.99
73063;BME280;61230;46.328;19.972;2023-07-13T07:18:04;100302.34;;;24.98;94.47
73063;BME280;61230;46.328;19.972;2023-07-13T07:20:32;100310.16;;;25.11;96.70
73063;BME280;61230;46.328;19.972;2023-07-13T07:23:00;100330.88;;;25.11;94.71
73063;BME280;61230;46.328;19.972;2023-07-13T07:25:28;100321.87;;;24.59;97.96
73063;BME280;61230;46.328;19.972;2023-07-13T07:27:59;100331.84;;;24.82;97.00
73063;BME280;61230;46.328;19.972;2023-07-13T07:30:30;100292.66;;;24.63;92.56
73063;BME280;61230;46.328;19.972;2023-07-13T07:33:00;100294.28;;;24.40;93.78
73063;BME280;61230;46.328;19.972;2023-07-13T07:35:32;100324.81;;;24.34;95.11
73063;BME280;61230;46.328;19.972;2023-07-13T07:38:05;100318.72;;;24.50;93.32
73063;BME280;61230;46.328;19.972;2023-07-13T07:40:36;100327.50;;;24.46;94.24
73063;BME280;61230;46.328;19.972;2023-07-13T07:43:08;100329.13;;;24.70;92.94
73063;BME280;61230;46.328;19.972;2023-07-13T07:45:37;100326.91;;;24.67;94.56
73063;BME280;61230;46.328;19.972;2023-07-13T07:48:06;100329.59;;;24.44;94.29
73063;BME280;61230;46.328;19.972;2023-07-13T07:50:33;100333.31;;;23.90;95.93
73063;BME280;61230;46.328;19.972;2023-07-13T07:53:02;100332.19;;;24.39;95.58
73063;BME280;61230;46.328;19.972;2023-07-13T07:55:32;100333.94;;;23.92;91.32
73063;BME280;61230;46.328;19.972;2023-07-13T07:58:05;100345.50;;;24.34;93.03
73063;BME280;61230;46.328;19.972;2023-07-13T08:00:53;100347.38;;;24.33;94.46
73063;BME280;61230;46.328;19.972;2023-07-13T08:03:23;100359.34;;;24.61;92.17
73063;BME280;61230;46.328;19.972;2023-07-13T08:05:54;100354.28;;;24.41;92.69
73063;BME280;61230;46.328;19.972;2023-07-13T08:08:25;100366.69;;;24.53;90.58
73063;BME280;61230;46.328;19.972;2023-07-13T08:10:53;100367.16;;;24.50;92.49
73063;BME280;61230;46.328;19.972;2023-07-13T08:13:26;100368.09;;;24.68;90.35
73063;BME280;61230;46.328;19.972;2023-07-13T08:15:53;100369.75;;;24.69;90.72
73063;BME280;61230;46.328;19.972;2023-07-13T08:18:21;100373.16;;;24.87;88.88
73063;BME280;61230;46.328;19.972;2023-07-13T08:20:49;100343.62;;;24.69;90.63
73063;BME280;61230;46.328;19.972;2023-07-13T08:23:17;100374.59;;;25.41;90.63
73063;BME280;61230;46.328;19.972;2023-07-13T08:25:53;100376.72;;;25.51;86.77
73063;BME280;61230;46.328;19.972;2023-07-13T08:28:22;100380.13;;;25.23;85.84
73063;BME280;61230;46.328;19.972;2023-07-13T08:30:49;100371.09;;;25.52;83.57
73063;BME280;61230;46.328;19.972;2023-07-13T08:33:22;100369.22;;;25.41;80.86
73063;BME280;61230;46.328;19.972;2023-07-13T08:35:53;100369.97;;;25.77;83.13
73063;BME280;61230;46.328;19.972;2023-07-13T08:38:20;100358.50;;;26.14;81.21
73063;BME280;61230;46.328;19.972;2023-07-13T08:40:53;100353.06;;;25.98;81.70
73063;BME280;61230;46.328;19.972;2023-07-13T08:43:26;100357.91;;;25.96;81.75
73063;BME280;61230;46.328;19.972;2023-07-13T08:46:26;100345.25;;;25.28;85.11
73063;BME280;61230;46.328;19.972;2023-07-13T08:49:03;100358.22;;;26.44;82.38
73063;BME280;61230;46.328;19.972;2023-07-13T08:51:37;100353.28;;;26.58;79.02
73063;BME280;61230;46.328;19.972;2023-07-13T08:54:31;100366.06;;;26.01;79.75
73063;BME280;61230;46.328;19.972;2023-07-13T08:57:11;100363.47;;;26.06;80.67
73063;BME280;61230;46.328;19.972;2023-07-13T08:59:40;100357.78;;;26.69;76.98
73063;BME280;61230;46.328;19.972;2023-07-13T09:02:33;100348.25;;;26.28;79.25
73063;BME280;61230;46.328;19.972;2023-07-13T09:05:06;100341.56;;;26.86;76.54
73063;BME280;61230;46.328;19.972;2023-07-13T09:10:46;100343.56;;;27.82;72.38
73063;BME280;61230;46.328;19.972;2023-07-13T09:13:26;100349.94;;;27.44;75.36
73063;BME280;61230;46.328;19.972;2023-07-13T09:15:55;100360.09;;;27.37;74.64
73063;BME280;61230;46.328;19.972;2023-07-13T09:18:56;100343.47;;;27.98;72.35
73063;BME280;61230;46.328;19.972;2023-07-13T09:21:31;100344.03;;;28.01;70.51
73063;BME280;61230;46.328;19.972;2023-07-13T09:24:29;100351.19;;;27.58;71.87
73063;BME280;61230;46.328;19.972;2023-07-13T09:26:51;100343.97;;;27.95;70.77
73063;BME280;61230;46.328;19.972;2023-07-13T09:29:33;100357.16;;;27.38;73.27
73063;BME280;61230;46.328;19.972;2023-07-13T09:32:04;100348.25;;;28.50;69.49
73063;BME280;61230;46.328;19.972;2023-07-13T09:34:35;100339.25;;;28.08;70.71
73063;BME280;61230;46.328;19.972;2023-07-13T09:37:03;100344.12;;;28.06;67.07
73063;BME280;61230;46.328;19.972;2023-07-13T09:39:39;100352.06;;;28.17;68.60
73063;BME280;61230;46.328;19.972;2023-07-13T09:42:17;100357.97;;;27.87;68.47
73063;BME280;61230;46.328;19.972;2023-07-13T09:45:00;100356.72;;;28.59;66.62
73063;BME280;61230;46.328;19.972;2023-07-13T09:47:31;100365.75;;;27.35;69.93
73063;BME280;61230;46.328;19.972;2023-07-13T09:50:02;100356.09;;;28.46;68.89
73063;BME280;61230;46.328;19.972;2023-07-13T09:55:46;100371.03;;;28.54;67.05
73063;BME280;61230;46.328;19.972;2023-07-13T09:58:22;100363.81;;;29.06;63.54
73063;BME280;61230;46.328;19.972;2023-07-13T10:01:00;100313.62;;;28.89;62.99
73063;BME280;61230;46.328;19.972;2023-07-13T10:03:32;100365.69;;;28.01;65.85
73063;BME280;61230;46.328;19.972;2023-07-13T10:06:16;100358.53;;;28.16;65.90
73063;BME280;61230;46.328;19.972;2023-07-13T10:08:45;100350.62;;;29.20;63.04
73063;BME280;61230;46.328;19.972;2023-07-13T10:11:22;100359.81;;;29.14;62.89
73063;BME280;61230;46.328;19.972;2023-07-13T10:14:02;100354.38;;;29.81;61.84
73063;BME280;61230;46.328;19.972;2023-07-13T10:16:32;100366.69;;;28.90;60.68
73063;BME280;61230;46.328;19.972;2023-07-13T10:19:06;100364.38;;;29.08;60.19
73063;BME280;61230;46.328;19.972;2023-07-13T10:21:46;100371.84;;;29.33;60.12
73063;BME280;61230;46.328;19.972;2023-07-13T10:24:31;100358.34;;;29.48;60.59
73063;BME280;61230;46.328;19.972;2023-07-13T10:27:15;100361.38;;;29.72;58.70
73063;BME280;61230;46.328;19.972;2023-07-13T10:29:51;100365.97;;;29.61;59.17
73063;BME280;61230;46.328;19.972;2023-07-13T10:32:22;100371.25;;;29.26;59.85
73063;BME280;61230;46.328;19.972;2023-07-13T10:34:52;100385.34;;;29.95;58.49
73063;BME280;61230;46.328;19.972;2023-07-13T10:37:25;100374.06;;;28.94;61.01
73063;BME280;61230;46.328;19.972;2023-07-13T10:39:56;100380.56;;;28.93;62.52
73063;BME280;61230;46.328;19.972;2023-07-13T10:42:33;100339.53;;;28.75;60.89
73063;BME280;61230;46.328;19.972;2023-07-13T10:45:23;100376.44;;;29.33;60.21
73063;BME280;61230;46.328;19.972;2023-07-13T10:47:52;100387.31;;;28.91;60.79
73063;BME280;61230;46.328;19.972;2023-07-13T10:50:25;100344.59;;;29.08;60.87
73063;BME280;61230;46.328;19.972;2023-07-13T10:52:55;100369.16;;;28.91;61.24
73063;BME280;61230;46.328;19.972;2023-07-13T10:55:38;100365.72;;;29.68;60.61
73063;BME280;61230;46.328;19.972;2023-07-13T10:58:19;100333.97;;;29.63;60.00
73063;BME280;61230;46.328;19.972;2023-07-13T11:01:02;100356.75;;;29.62;60.79
73063;BME280;61230;46.328;19.972;2023-07-13T11:03:32;100363.28;;;29.72;59.60
73063;BME280;61230;46.328;19.972;2023-07-13T11:06:16;100354.38;;;29.09;62.05
73063;BME280;61230;46.328;19.972;2023-07-13T11:18:50;100356.91;;;29.26;62.41
73063;BME280;61230;46.328;19.972;2023-07-13T11:21:23;100358.59;;;29.52;60.91
73063;BME280;61230;46.328;19.972;2023-07-13T11:24:02;100354.66;;;29.90;59.57
73063;BME280;61230;46.328;19.972;2023-07-13T11:26:43;100354.31;;;29.66;59.89
73063;BME280;61230;46.328;19.972;2023-07-13T11:31:53;100354.41;;;30.87;58.63
73063;BME280;61230;46.328;19.972;2023-07-13T11:34:31;100340.53;;;30.94;54.32
73063;BME280;61230;46.328;19.972;2023-07-13T11:37:02;100306.78;;;31.00;55.29
73063;BME280;61230;46.328;19.972;2023-07-13T11:39:36;100351.47;;;31.43;55.62
73063;BME280;61230;46.328;19.972;2023-07-13T11:42:16;100353.28;;;29.77;61.08
73063;BME280;61230;46.328;19.972;2023-07-13T11:44:50;100337.97;;;31.22;56.54
73063;BME280;61230;46.328;19.972;2023-07-13T11:47:40;100348.19;;;31.46;56.01
73063;BME280;61230;46.328;19.972;2023-07-13T11:50:18;100347.66;;;30.64;56.64
73063;BME280;61230;46.328;19.972;2023-07-13T11:52:48;100348.72;;;30.33;57.43
73063;BME280;61230;46.328;19.972;2023-07-13T11:55:18;100348.94;;;30.87;58.21
73063;BME280;61230;46.328;19.972;2023-07-13T12:00:26;100353.88;;;30.09;61.01
73063;BME280;61230;46.328;19.972;2023-07-13T12:02:57;100353.56;;;29.86;61.35
73063;BME280;61230;46.328;19.972;2023-07-13T12:05:26;100362.06;;;30.45;60.41
73063;BME280;61230;46.328;19.972;2023-07-13T12:07:54;100365.50;;;29.80;61.77
73063;BME280;61230;46.328;19.972;2023-07-13T12:10:25;100323.12;;;28.96;64.03
73063;BME280;61230;46.328;19.972;2023-07-13T12:13:05;100361.84;;;29.44;62.93
73063;BME280;61230;46.328;19.972;2023-07-13T12:15:43;100374.38;;;29.60;60.37
73063;BME280;61230;46.328;19.972;2023-07-13T12:18:28;100366.88;;;29.97;59.92
73063;BME280;61230;46.328;19.972;2023-07-13T12:20:58;100352.53;;;30.22;57.66
73063;BME280;61230;46.328;19.972;2023-07-13T12:23:32;100349.75;;;29.77;59.29
73063;BME280;61230;46.328;19.972;2023-07-13T12:26:04;100365.03;;;30.08;58.04
73063;BME280;61230;46.328;19.972;2023-07-13T12:28:38;100351.06;;;29.69;61.35
73063;BME280;61230;46.328;19.972;2023-07-13T12:31:23;100360.66;;;30.17;60.20
73063;BME280;61230;46.328;19.972;2023-07-13T12:36:46;100310.97;;;30.11;59.72
73063;BME280;61230;46.328;19.972;2023-07-13T12:41:47;100343.06;;;30.45;56.94
73063;BME280;61230;46.328;19.972;2023-07-13T12:44:18;100314.16;;;29.63;57.72
73063;BME280;61230;46.328;19.972;2023-07-13T12:46:55;100295.25;;;30.13;56.58
73063;BME280;61230;46.328;19.972;2023-07-13T12:49:27;100346.28;;;30.06;55.61
73063;BME280;61230;46.328;19.972;2023-07-13T12:51:58;100305.56;;;30.27;56.17
73063;BME280;61230;46.328;19.972;2023-07-13T12:54:27;100336.13;;;29.61;57.57
73063;BME280;61230;46.328;19.972;2023-07-13T12:56:57;100343.84;;;30.30;57.81
73063;BME280;61230;46.328;19.972;2023-07-13T12:59:30;100341.41;;;30.13;56.90
73063;BME280;61230;46.328;19.972;2023-07-13T13:02:00;100351.16;;;30.04;57.65
73063;BME280;61230;46.328;19.972;2023-07-13T13:04:28;100343.31;;;30.08;57.37
73063;BME280;61230;46.328;19.972;2023-07-13T13:07:03;100346.84;;;30.44;56.16
73063;BME280;61230;46.328;19.972;2023-07-13T13:09:34;100348.44;;;30.09;54.58
73063;BME280;61230;46.328;19.972;2023-07-13T13:12:01;100340.03;;;30.16;54.35
73063;BME280;61230;46.328;19.972;2023-07-13T13:14:29;100344.88;;;29.89;55.56
73063;BME280;61230;46.328;19.972;2023-07-13T13:16:57;100337.31;;;30.21;54.95
73063;BME280;61230;46.328;19.972;2023-07-13T13:19:27;100338.44;;;30.50;54.54
73063;BME280;61230;46.328;19.972;2023-07-13T13:21:56;100330.19;;;30.91;53.84
73063;BME280;61230;46.328;19.972;2023-07-13T13:24:27;100329.13;;;30.76;54.42
73063;BME280;61230;46.328;19.972;2023-07-13T13:26:55;100307.16;;;30.58;53.38
73063;BME280;61230;46.328;19.972;2023-07-13T13:29:25;100323.75;;;30.16;55.03